Аэропорт: Петропавловск. Петропавловск

ICAO: UACP

METAR:
2018/11/19 10:00
UACP 191000Z 20007MPS 9999 OVC032CB M00/M04 Q1023 R23/7/0445 NOSIG RMK QFE755/1007
METAR:
2014/11/02 09:00
TAF UACP 020753Z 0209/0218 21004MPS 9999 BKN030